Time;durP1;ratioP1;P1;durP2;ratioP2;P2;SDS_P1;SDS_P2;PMS_P1;PMS_P2;Temp;Humidity;BMP_temperature;BMP_pressure;BME280_temperature;BME280_humidity;BME280_pressure;Samples;Min_cycle;Max_cycle;Signal;HPM_P1;HPM_P2
2023/05/29 00:01:11;;;;;;;8.20;3.70;;;;;;;13.48;86.41;95622.74;106555;1275;23049;-71
2023/05/29 00:03:39;;;;;;;5.00;4.10;;;;;;;13.48;86.06;95623.79;106561;1275;22527;-71
2023/05/29 00:06:08;;;;;;;5.90;4.00;;;;;;;13.46;86.22;95619.80;106600;1275;25402;-71
2023/05/29 00:08:37;;;;;;;8.80;4.30;;;;;;;13.39;85.97;95624.23;106594;1275;22520;-70
2023/05/29 00:11:05;;;;;;;8.60;4.30;;;;;;;13.36;86.03;95626.77;106609;1262;22531;-71
2023/05/29 00:13:34;;;;;;;5.10;3.90;;;;;;;13.35;85.76;95624.87;106634;1275;22651;-71
2023/05/29 00:16:03;;;;;;;7.30;4.20;;;;;;;13.33;85.95;95628.83;106565;1275;22601;-71
2023/05/29 00:18:32;;;;;;;8.30;4.50;;;;;;;13.28;85.47;95636.38;106620;1275;25314;-70
2023/05/29 00:21:00;;;;;;;5.20;3.70;;;;;;;13.24;85.50;95635.58;106658;1275;25307;-71
2023/05/29 00:23:29;;;;;;;6.40;4.10;;;;;;;13.17;85.61;95637.54;106032;1275;677095;-71
2023/05/29 00:25:57;;;;;;;9.90;4.40;;;;;;;13.11;85.77;95638.60;106519;1275;26637;-70
2023/05/29 00:28:25;;;;;;;5.40;4.50;;;;;;;13.05;85.94;95639.98;106576;1275;22982;-70
2023/05/29 00:30:54;;;;;;;5.70;4.40;;;;;;;12.99;86.39;95638.23;106559;1275;24306;-71
2023/05/29 00:33:22;;;;;;;8.70;4.00;;;;;;;12.91;86.59;95637.90;106574;1275;25349;-72
2023/05/29 00:35:50;;;;;;;5.10;4.00;;;;;;;12.83;87.03;95635.83;106539;1275;22523;-71
2023/05/29 00:38:19;;;;;;;7.20;4.40;;;;;;;12.74;86.42;95636.40;106689;1275;22771;-71
2023/05/29 00:40:48;;;;;;;6.50;4.20;;;;;;;12.67;86.34;95635.55;106621;1275;24266;-72
2023/05/29 00:43:16;;;;;;;5.80;4.00;;;;;;;12.62;87.29;95629.67;106587;1275;22545;-71
2023/05/29 00:45:44;;;;;;;7.10;4.10;;;;;;;12.55;86.93;95633.73;106597;1275;22633;-71
2023/05/29 00:48:12;;;;;;;6.10;3.90;;;;;;;12.51;87.06;95635.41;106619;1275;24250;-72
2023/05/29 00:50:41;;;;;;;7.70;4.10;;;;;;;12.48;87.01;95634.98;106566;1275;22542;-71
2023/05/29 00:53:10;;;;;;;6.50;3.80;;;;;;;12.49;87.04;95635.83;106586;1275;25568;-71
2023/05/29 00:55:38;;;;;;;6.10;3.70;;;;;;;12.44;86.91;95633.48;106634;1275;22530;-71
2023/05/29 00:58:06;;;;;;;8.10;4.10;;;;;;;12.47;87.46;95631.13;106559;1275;25594;-71
2023/05/29 01:00:35;;;;;;;5.30;4.00;;;;;;;12.44;87.08;95634.71;106553;1255;24293;-71
2023/05/29 01:03:06;;;;;;;5.70;3.80;;;;;;;12.44;87.15;95635.95;106611;1275;25371;-71
2023/05/29 01:05:37;;;;;;;5.60;3.60;;;;;;;12.44;87.12;95637.36;106597;1275;24213;-72
2023/05/29 01:08:07;;;;;;;5.60;3.90;;;;;;;12.38;86.84;95637.85;106574;1253;25489;-72
2023/05/29 01:10:36;;;;;;;6.80;4.20;;;;;;;12.38;87.14;95633.46;106617;1275;25451;-71
2023/05/29 01:13:11;;;;;;;5.80;3.80;;;;;;;12.39;86.98;95630.59;106567;1275;24394;-72
2023/05/29 01:15:52;;;;;;;8.20;3.90;;;;;;;12.31;86.53;95628.33;106602;1275;22658;-72
2023/05/29 01:18:41;;;;;;;9.50;3.80;;;;;;;12.28;86.99;95627.19;106585;1275;24425;-71
2023/05/29 01:21:22;;;;;;;7.20;3.70;;;;;;;12.18;86.32;95623.02;106557;1275;25162;-71
2023/05/29 01:24:03;;;;;;;8.70;3.60;;;;;;;12.07;86.39;95621.68;106558;1268;25500;-71
2023/05/29 01:26:50;;;;;;;6.10;3.80;;;;;;;11.99;86.62;95622.23;106590;1275;24229;-71
2023/05/29 01:29:23;;;;;;;6.00;3.70;;;;;;;11.89;86.72;95627.59;106661;1275;22960;-71
2023/05/29 01:31:53;;;;;;;7.30;4.10;;;;;;;11.84;87.53;95629.42;106619;1275;25281;-71
2023/05/29 01:34:21;;;;;;;6.60;4.00;;;;;;;11.83;87.22;95626.46;106646;1275;24264;-71
2023/05/29 01:36:49;;;;;;;9.60;3.50;;;;;;;11.78;87.52;95627.46;106580;1275;22532;-71
2023/05/29 01:39:19;;;;;;;4.30;3.60;;;;;;;11.75;87.44;95625.93;106553;1275;24074;-71
2023/05/29 01:41:48;;;;;;;9.50;4.20;;;;;;;11.68;87.58;95623.79;106611;1275;24392;-71
2023/05/29 01:44:18;;;;;;;8.80;3.90;;;;;;;11.65;87.22;95621.38;106613;1253;22668;-71
2023/05/29 01:46:48;;;;;;;8.80;3.90;;;;;;;11.63;87.21;95619.48;106631;1275;22514;-71
2023/05/29 01:49:17;;;;;;;4.70;3.40;;;;;;;11.63;87.38;95620.39;106608;1275;22521;-71
2023/05/29 01:51:46;;;;;;;4.50;3.50;;;;;;;11.65;87.16;95623.14;106619;1275;22657;-71
2023/05/29 01:54:15;;;;;;;11.10;4.20;;;;;;;11.56;86.39;95620.52;106593;1275;24274;-71
2023/05/29 01:56:45;;;;;;;9.20;3.80;;;;;;;11.50;86.63;95614.34;106523;1275;25294;-71
2023/05/29 01:59:14;;;;;;;8.70;3.90;;;;;;;11.39;86.81;95616.14;106610;1275;22538;-71
2023/05/29 02:01:42;;;;;;;4.30;3.60;;;;;;;11.31;87.41;95616.30;106613;1275;23181;-71
2023/05/29 02:04:10;;;;;;;7.40;4.30;;;;;;;11.22;87.09;95614.73;106555;1275;25422;-71
2023/05/29 02:06:39;;;;;;;6.70;4.00;;;;;;;11.21;87.70;95613.35;106678;1275;23875;-70
2023/05/29 02:09:07;;;;;;;8.90;3.70;;;;;;;11.20;87.42;95612.14;106530;1275;25348;-71
2023/05/29 02:11:36;;;;;;;8.50;4.30;;;;;;;11.13;87.48;95611.93;106627;1264;25208;-71
2023/05/29 02:14:04;;;;;;;6.50;4.20;;;;;;;11.14;87.53;95608.40;106554;1275;24354;-71
2023/05/29 02:16:33;;;;;;;6.80;4.50;;;;;;;11.14;87.49;95605.41;106598;1275;22942;-71
2023/05/29 02:19:02;;;;;;;6.80;4.10;;;;;;;11.16;87.44;95603.61;106658;1275;22526;-71
2023/05/29 02:21:31;;;;;;;6.40;4.30;;;;;;;11.18;87.83;95603.73;106546;1275;22728;-71
2023/05/29 02:23:59;;;;;;;7.60;4.30;;;;;;;11.15;88.44;95604.16;106564;1275;25276;-71
2023/05/29 02:26:27;;;;;;;5.80;4.20;;;;;;;11.14;88.83;95601.73;106622;1275;22527;-71
2023/05/29 02:28:56;;;;;;;9.30;4.30;;;;;;;11.15;88.64;95604.33;106546;1275;22523;-71
2023/05/29 02:31:24;;;;;;;5.90;4.30;;;;;;;11.14;89.43;95602.06;106594;1275;22531;-71
2023/05/29 02:33:52;;;;;;;7.70;4.50;;;;;;;11.15;89.19;95603.61;106560;1275;22558;-71
2023/05/29 02:36:22;;;;;;;6.30;4.60;;;;;;;11.17;89.56;95601.45;106611;1275;22528;-71
2023/05/29 02:38:51;;;;;;;6.50;4.40;;;;;;;11.22;89.12;95605.60;106634;1275;24195;-71
2023/05/29 02:41:20;;;;;;;8.30;4.40;;;;;;;11.26;88.94;95601.11;106596;1275;22541;-71
2023/05/29 02:43:51;;;;;;;7.40;4.30;;;;;;;11.22;88.20;95602.42;106562;1271;22523;-71
2023/05/29 02:46:21;;;;;;;7.00;4.70;;;;;;;11.22;88.26;95605.58;106584;1253;22646;-71
2023/05/29 02:48:50;;;;;;;9.50;4.30;;;;;;;11.25;88.61;95605.86;106582;1275;25770;-71
2023/05/29 02:51:18;;;;;;;9.00;4.30;;;;;;;11.26;89.03;95604.27;106613;1275;24259;-71
2023/05/29 02:53:48;;;;;;;7.60;4.60;;;;;;;11.31;89.62;95603.28;106589;1275;25351;-71
2023/05/29 02:56:16;;;;;;;6.50;4.60;;;;;;;11.34;89.21;95599.87;106601;1275;22531;-71
2023/05/29 02:58:45;;;;;;;5.90;4.20;;;;;;;11.37;89.46;95602.27;106611;1275;25838;-71
2023/05/29 03:01:14;;;;;;;8.50;4.50;;;;;;;11.40;89.88;95603.09;106594;1275;25224;-71
2023/05/29 03:03:43;;;;;;;5.10;4.20;;;;;;;11.47;89.77;95604.70;106510;1275;22669;-71
2023/05/29 03:06:16;;;;;;;4.40;3.80;;;;;;;11.50;89.47;95601.65;106587;1275;25190;-71
2023/05/29 03:08:44;;;;;;;4.90;4.30;;;;;;;11.57;90.21;95606.08;106595;1275;22653;-72
2023/05/29 03:11:13;;;;;;;5.90;3.80;;;;;;;11.65;90.27;95603.59;106598;1275;22519;-71
2023/05/29 03:13:41;;;;;;;5.50;4.00;;;;;;;11.77;90.48;95603.50;106607;1275;22527;-71
2023/05/29 03:16:10;;;;;;;6.90;4.00;;;;;;;11.86;89.79;95593.61;106553;1264;22938;-71
2023/05/29 03:18:39;;;;;;;5.30;4.30;;;;;;;11.90;89.20;95596.88;106639;1275;22506;-71
2023/05/29 03:21:08;;;;;;;6.20;4.30;;;;;;;11.87;88.89;95595.37;106673;1275;23147;-71
2023/05/29 03:23:36;;;;;;;5.70;4.10;;;;;;;11.93;89.14;95602.11;106576;1275;23403;-71
2023/05/29 03:26:05;;;;;;;5.10;4.20;;;;;;;11.94;88.87;95599.61;106511;1275;25391;-72
2023/05/29 03:28:35;;;;;;;5.00;3.90;;;;;;;12.00;89.32;95603.17;106617;1275;22461;-71
2023/05/29 03:31:05;;;;;;;5.90;4.10;;;;;;;12.04;89.42;95608.36;106886;1275;22517;-71
2023/05/29 03:33:36;;;;;;;13.20;5.20;;;;;;;12.07;89.68;95609.86;106562;1275;22638;-71
2023/05/29 03:36:28;;;;;;;6.60;4.70;;;;;;;12.18;89.66;95609.97;106553;1275;25616;-71
2023/05/29 03:38:56;;;;;;;7.50;5.50;;;;;;;12.33;89.86;95612.06;106608;1275;24280;-71
2023/05/29 03:41:25;;;;;;;11.80;5.20;;;;;;;12.45;88.93;95607.36;106561;1275;25339;-71
2023/05/29 03:43:53;;;;;;;10.30;4.50;;;;;;;12.46;88.11;95606.44;106625;1275;22521;-71
2023/05/29 03:46:23;;;;;;;8.40;4.70;;;;;;;12.42;87.74;95609.36;106878;1275;22640;-71
2023/05/29 03:48:51;;;;;;;7.40;4.80;;;;;;;12.36;87.89;95608.99;106622;1275;22649;-71
2023/05/29 03:51:19;;;;;;;14.80;7.60;;;;;;;12.31;88.10;95608.23;106514;1275;23921;-71
2023/05/29 03:53:48;;;;;;;20.20;9.60;;;;;;;12.29;88.15;95607.74;106607;1275;25454;-72
2023/05/29 03:56:18;;;;;;;15.20;8.50;;;;;;;12.32;88.72;95611.19;106619;1275;25323;-71
2023/05/29 03:58:46;;;;;;;14.20;8.50;;;;;;;12.47;89.43;95609.76;106590;1275;22759;-71
2023/05/29 04:01:15;;;;;;;10.70;6.80;;;;;;;12.67;89.57;95611.55;106604;1275;23910;-72
2023/05/29 04:03:44;;;;;;;7.90;6.40;;;;;;;12.82;88.73;95610.96;106541;1275;22602;-71
2023/05/29 04:06:14;;;;;;;11.70;7.20;;;;;;;12.85;87.89;95611.23;106526;1275;22649;-71
2023/05/29 04:08:42;;;;;;;11.80;7.20;;;;;;;12.89;87.98;95611.13;106648;1275;22654;-72
2023/05/29 04:11:11;;;;;;;14.20;8.00;;;;;;;12.92;87.60;95613.50;106709;1276;25333;-72
2023/05/29 04:13:40;;;;;;;11.90;7.30;;;;;;;12.98;87.89;95615.83;106459;1276;24354;-71
2023/05/29 04:16:10;;;;;;;10.70;6.50;;;;;;;13.01;87.61;95616.27;106764;1268;22632;-71
2023/05/29 04:18:38;;;;;;;12.60;6.60;;;;;;;13.05;87.26;95619.15;106614;1276;25606;-72
2023/05/29 04:21:07;;;;;;;8.60;6.60;;;;;;;13.09;87.28;95625.56;106332;1276;22525;-71
2023/05/29 04:23:35;;;;;;;10.20;6.70;;;;;;;13.12;86.92;95622.48;106578;1276;24253;-71
2023/05/29 04:26:03;;;;;;;8.90;6.60;;;;;;;13.13;86.51;95621.07;106414;1276;25237;-71
2023/05/29 04:28:31;;;;;;;9.50;6.90;;;;;;;13.05;85.99;95619.17;106506;1276;22543;-71
2023/05/29 04:31:00;;;;;;;7.30;5.90;;;;;;;12.98;86.25;95616.69;106607;1276;22601;-71
2023/05/29 04:33:29;;;;;;;7.50;5.80;;;;;;;12.95;86.62;95615.02;106542;1276;22511;-71
2023/05/29 04:36:00;;;;;;;10.30;5.20;;;;;;;12.98;86.81;95615.64;106572;1276;22646;-71
2023/05/29 04:38:30;;;;;;;6.70;5.80;;;;;;;12.99;86.72;95614.54;106562;1276;23887;-72
2023/05/29 04:40:58;;;;;;;11.30;6.30;;;;;;;13.06;87.01;95616.49;106599;1276;25192;-70
2023/05/29 04:43:28;;;;;;;10.20;7.00;;;;;;;13.13;87.06;95615.77;106558;1276;25211;-71
2023/05/29 04:46:02;;;;;;;8.10;6.20;;;;;;;13.18;87.07;95614.55;106640;1276;25241;-71
2023/05/29 04:48:33;;;;;;;10.00;6.70;;;;;;;13.24;86.99;95614.20;106673;1276;24576;-72
2023/05/29 04:51:01;;;;;;;7.70;6.00;;;;;;;13.31;87.09;95614.73;106581;1276;22636;-71
2023/05/29 04:53:31;;;;;;;8.90;6.10;;;;;;;13.38;86.87;95618.44;106781;1267;24086;-70
2023/05/29 04:55:59;;;;;;;9.10;6.60;;;;;;;13.40;86.38;95622.06;106545;1276;24375;-70
2023/05/29 04:58:28;;;;;;;9.40;6.70;;;;;;;13.50;86.50;95622.68;106625;1276;24235;-71
2023/05/29 05:00:57;;;;;;;8.90;6.20;;;;;;;13.61;86.50;95624.10;106583;1276;25673;-71
2023/05/29 05:03:30;;;;;;;10.00;6.30;;;;;;;13.70;86.19;95620.83;106510;1276;24262;-70
2023/05/29 05:06:03;;;;;;;8.50;6.10;;;;;;;13.82;86.42;95621.71;106422;1276;22651;-70
2023/05/29 05:08:32;;;;;;;9.10;5.90;;;;;;;13.96;86.15;95622.17;106287;1276;23884;-71
2023/05/29 05:11:02;;;;;;;6.30;5.10;;;;;;;14.03;85.61;95623.88;106345;1276;22994;-71
2023/05/29 05:13:30;;;;;;;7.40;5.30;;;;;;;14.12;85.52;95628.05;107803;1276;25472;-75
2023/05/29 05:15:58;;;;;;;9.00;5.50;;;;;;;14.23;85.79;95626.62;106263;1276;23891;-69
2023/05/29 05:18:28;;;;;;;7.40;5.10;;;;;;;14.32;85.16;95631.80;109450;1276;25401;-67
2023/05/29 05:21:03;;;;;;;7.90;5.10;;;;;;;14.39;85.13;95632.28;106599;1276;24201;-77
2023/05/29 05:23:33;;;;;;;8.40;5.80;;;;;;;14.49;84.46;95637.79;106561;1276;22516;-77
2023/05/29 05:26:20;;;;;;;7.30;5.20;;;;;;;14.56;84.44;95639.88;106565;1276;22531;-79
2023/05/29 05:28:48;;;;;;;8.30;5.00;;;;;;;14.64;84.41;95638.71;106423;1276;22520;-75
2023/05/29 05:31:17;;;;;;;7.30;4.80;;;;;;;14.74;84.46;95641.75;106553;1276;25600;-77
2023/05/29 05:33:46;;;;;;;5.50;4.80;;;;;;;14.80;82.96;95643.33;106844;1276;24369;-77
2023/05/29 05:36:15;;;;;;;11.30;5.50;;;;;;;14.72;82.04;95637.60;106500;1276;22520;-74
2023/05/29 05:38:43;;;;;;;12.20;6.60;;;;;;;14.69;82.66;95640.31;106559;1276;22523;-69
2023/05/29 05:41:12;;;;;;;8.50;5.90;;;;;;;14.76;83.34;95641.54;106449;1276;25323;-72
2023/05/29 05:43:40;;;;;;;7.90;5.80;;;;;;;14.87;83.14;95644.86;106565;1276;22523;-73
2023/05/29 05:46:25;;;;;;;11.90;6.30;;;;;;;14.98;82.62;95648.20;106607;1276;22988;-75
2023/05/29 05:48:57;;;;;;;9.20;6.00;;;;;;;15.05;81.74;95648.83;106419;1276;22523;-70
2023/05/29 05:51:26;;;;;;;7.60;6.20;;;;;;;15.12;80.76;95646.30;106340;1276;22780;-74
2023/05/29 05:53:54;;;;;;;9.50;6.90;;;;;;;15.16;80.16;95647.91;106577;1276;25714;-69
2023/05/29 05:56:23;;;;;;;8.70;6.90;;;;;;;15.22;79.81;95643.98;106543;1276;22608;-70
2023/05/29 05:58:51;;;;;;;8.50;6.40;;;;;;;15.25;79.22;95652.22;106801;1276;25455;-70
2023/05/29 06:01:20;;;;;;;8.30;6.10;;;;;;;15.29;79.39;95652.23;106524;1276;22636;-69
2023/05/29 06:03:49;;;;;;;6.40;5.70;;;;;;;15.37;79.65;95648.59;106735;1276;24274;-70
2023/05/29 06:06:18;;;;;;;10.40;6.10;;;;;;;15.43;78.74;95649.45;106504;1276;25881;-71
2023/05/29 06:08:47;;;;;;;8.30;6.10;;;;;;;15.45;78.40;95649.52;106507;1277;22607;-74
2023/05/29 06:11:17;;;;;;;8.20;5.90;;;;;;;15.48;77.59;95654.75;107883;1276;22535;-74
2023/05/29 06:13:46;;;;;;;6.80;5.20;;;;;;;15.54;77.43;95651.83;106524;1276;24356;-79
2023/05/29 06:16:22;;;;;;;7.90;5.60;;;;;;;15.64;77.27;95654.14;106720;1276;22521;-71
2023/05/29 06:18:50;;;;;;;10.10;5.60;;;;;;;15.72;76.01;95655.30;106532;1276;22652;-74
2023/05/29 06:21:19;;;;;;;7.80;5.20;;;;;;;15.81;75.47;95657.10;106386;1276;22679;-73
2023/05/29 06:23:53;;;;;;;5.60;5.00;;;;;;;15.92;74.28;95657.02;106404;1276;22524;-73
2023/05/29 06:26:24;;;;;;;8.00;5.10;;;;;;;16.03;73.20;95654.11;106406;1276;24372;-81
2023/05/29 06:28:54;;;;;;;6.80;5.10;;;;;;;16.21;73.50;95652.67;106693;1276;25472;-74
2023/05/29 06:31:22;;;;;;;11.50;5.10;;;;;;;16.40;74.31;95649.98;106867;1276;22523;-75
2023/05/29 06:33:51;;;;;;;5.70;4.30;;;;;;;16.62;74.41;95645.50;106495;1276;25934;-72
2023/05/29 06:36:20;;;;;;;5.60;4.40;;;;;;;16.82;73.01;95642.23;106411;1276;22998;-74
2023/05/29 06:38:48;;;;;;;6.10;4.90;;;;;;;17.02;72.85;95648.30;106508;1276;22661;-78
2023/05/29 06:41:17;;;;;;;7.30;4.80;;;;;;;17.18;72.64;95646.03;106428;1276;22618;-73
2023/05/29 06:43:45;;;;;;;8.00;5.70;;;;;;;17.35;71.35;95641.71;106434;1276;22524;-69
2023/05/29 06:46:14;;;;;;;7.30;5.40;;;;;;;17.55;72.52;95648.12;106690;1276;22578;-72
2023/05/29 06:48:43;;;;;;;8.50;5.10;;;;;;;17.76;72.12;95642.00;106764;1273;25322;-69
2023/05/29 06:51:12;;;;;;;8.00;5.40;;;;;;;17.96;70.86;95640.73;106602;1276;22569;-75
2023/05/29 06:53:41;;;;;;;6.20;5.30;;;;;;;18.11;70.36;95641.27;106791;1276;25399;-70
2023/05/29 06:56:12;;;;;;;6.70;4.90;;;;;;;18.24;69.20;95642.99;106527;1276;22621;-70
2023/05/29 06:58:40;;;;;;;8.50;5.40;;;;;;;18.32;66.88;95639.73;106520;1276;22548;-72
2023/05/29 07:01:08;;;;;;;20.50;5.40;;;;;;;18.43;67.94;95636.36;106583;1268;22666;-71
2023/05/29 07:03:42;;;;;;;6.10;5.00;;;;;;;18.60;68.50;95639.59;106961;1276;24259;-71
2023/05/29 07:06:11;;;;;;;63.00;49.90;;;;;;;18.72;67.44;95639.95;106391;1276;24274;-73
2023/05/29 07:08:39;;;;;;;8.60;5.80;;;;;;;18.84;66.49;95639.69;107062;1276;24092;-71
2023/05/29 07:11:07;;;;;;;12.90;6.40;;;;;;;18.98;67.54;95642.56;106342;1276;23152;-71
2023/05/29 07:13:36;;;;;;;10.20;5.40;;;;;;;19.08;67.52;95640.48;106531;1276;22520;-73
2023/05/29 07:16:04;;;;;;;10.20;5.20;;;;;;;19.07;67.89;95644.64;106343;1276;22540;-70
2023/05/29 07:18:54;;;;;;;13.70;5.70;;;;;;;18.97;66.67;95644.53;106502;1276;25541;-72
2023/05/29 07:21:22;;;;;;;9.30;6.30;;;;;;;18.90;67.48;95646.72;106376;1276;23077;-70
2023/05/29 07:23:50;;;;;;;8.60;6.80;;;;;;;18.84;67.69;95648.08;106398;1276;22547;-70
2023/05/29 07:26:21;;;;;;;10.20;7.30;;;;;;;18.75;67.46;95647.61;106433;1276;22642;-71
2023/05/29 07:28:50;;;;;;;8.00;5.80;;;;;;;18.62;67.70;95648.79;106510;1276;22517;-72
2023/05/29 07:31:19;;;;;;;6.60;5.40;;;;;;;18.55;68.34;95651.24;106496;1276;22527;-70
2023/05/29 07:33:48;;;;;;;8.50;7.60;;;;;;;18.48;68.07;95651.80;106567;1276;22569;-67
2023/05/29 07:36:18;;;;;;;7.00;5.20;;;;;;;18.38;68.05;95649.59;106296;1265;25220;-68
2023/05/29 07:38:47;;;;;;;9.90;5.90;;;;;;;18.34;68.61;95649.45;106595;1276;22532;-68
2023/05/29 07:41:17;;;;;;;12.50;11.20;;;;;;;18.34;69.11;95654.06;106833;1276;22786;-67
2023/05/29 07:43:55;;;;;;;10.30;6.70;;;;;;;18.49;69.31;95646.91;106415;1276;24239;-67
2023/05/29 07:46:24;;;;;;;7.80;5.00;;;;;;;18.60;68.94;95650.50;107170;1276;22534;-70
2023/05/29 07:48:59;;;;;;;6.30;5.20;;;;;;;18.63;68.18;95651.77;106502;1276;22523;-75
2023/05/29 07:51:27;;;;;;;7.70;5.40;;;;;;;18.61;67.46;95651.66;106461;1276;22523;-71
2023/05/29 07:53:55;;;;;;;6.50;5.50;;;;;;;18.61;67.53;95650.42;106507;1253;25563;-79
2023/05/29 07:56:25;;;;;;;13.50;6.60;;;;;;;18.59;66.37;95648.38;106616;1274;22628;-68
2023/05/29 07:58:54;;;;;;;9.10;5.40;;;;;;;18.60;67.07;95647.97;106403;1276;25315;-70
2023/05/29 08:01:23;;;;;;;12.60;5.80;;;;;;;18.76;67.63;95648.14;106539;1276;25560;-70
2023/05/29 08:03:52;;;;;;;6.60;5.60;;;;;;;19.00;65.82;95652.45;106656;1276;24377;-68
2023/05/29 08:06:25;;;;;;;6.50;5.50;;;;;;;19.20;66.09;95649.11;106558;1269;22517;-74
2023/05/29 08:08:57;;;;;;;10.20;5.40;;;;;;;19.43;66.04;95647.21;106566;1275;22521;-75
2023/05/29 08:11:26;;;;;;;7.30;5.70;;;;;;;19.69;66.43;95646.02;106542;1272;22510;-74
2023/05/29 08:13:54;;;;;;;10.80;5.00;;;;;;;20.05;66.28;95644.27;106485;1274;25210;-68
2023/05/29 08:16:23;;;;;;;6.50;5.30;;;;;;;20.33;64.13;95637.71;106539;1273;25224;-68
2023/05/29 08:18:51;;;;;;;9.70;8.00;;;;;;;20.55;63.79;95639.13;106316;1265;25174;-67
2023/05/29 08:21:20;;;;;;;7.30;5.40;;;;;;;20.78;64.09;95635.70;106425;1277;22550;-67
2023/05/29 08:23:49;;;;;;;8.80;5.20;;;;;;;21.08;63.80;95633.91;106532;1277;23930;-68
2023/05/29 08:26:17;;;;;;;7.50;4.70;;;;;;;21.28;59.57;95638.64;106489;1272;22505;-74
2023/05/29 08:28:45;;;;;;;10.90;5.60;;;;;;;21.41;60.20;95632.52;106452;1270;25326;-77
2023/05/29 08:31:13;;;;;;;7.20;4.80;;;;;;;21.63;60.97;95633.30;106530;1274;23884;-74
2023/05/29 08:33:42;;;;;;;8.20;4.80;;;;;;;21.85;59.97;95630.55;106472;1277;25352;-73
2023/05/29 08:36:10;;;;;;;7.30;5.10;;;;;;;22.02;59.99;95630.52;106228;1273;24399;-73
2023/05/29 08:38:39;;;;;;;7.80;5.30;;;;;;;22.07;59.28;95629.83;106338;1274;22627;-78
2023/05/29 08:41:08;;;;;;;7.00;4.90;;;;;;;22.06;55.86;95628.86;109433;1270;25402;-76
2023/05/29 08:43:37;;;;;;;8.60;5.60;;;;;;;22.10;57.60;95627.52;106548;1274;22530;-71
2023/05/29 08:46:07;;;;;;;8.30;5.10;;;;;;;22.29;58.79;95629.73;106529;1273;22536;-74
2023/05/29 08:48:40;;;;;;;6.20;4.50;;;;;;;22.34;58.21;95630.16;106812;1269;24190;-77
2023/05/29 08:51:10;;;;;;;13.20;5.60;;;;;;;22.26;57.87;95629.22;106461;1269;24272;-69
2023/05/29 08:53:38;;;;;;;9.10;4.90;;;;;;;22.31;58.37;95629.25;106491;1269;25576;-70
2023/05/29 08:56:07;;;;;;;6.80;5.00;;;;;;;22.30;56.13;95625.72;106986;1271;25471;-69
2023/05/29 08:58:35;;;;;;;7.50;5.10;;;;;;;22.16;57.07;95629.31;106454;1276;23963;-71
2023/05/29 09:01:04;;;;;;;6.70;4.90;;;;;;;22.07;57.89;95625.54;108339;1276;25420;-71
2023/05/29 09:03:33;;;;;;;8.40;4.80;;;;;;;22.06;58.37;95625.98;106591;1276;24415;-75
2023/05/29 09:06:03;;;;;;;8.20;4.80;;;;;;;22.25;58.47;95624.60;106472;1276;22771;-72
2023/05/29 09:08:32;;;;;;;8.90;5.40;;;;;;;22.36;56.38;95618.88;106767;1276;22512;-76
2023/05/29 09:11:01;;;;;;;5.20;4.70;;;;;;;22.50;56.94;95614.22;106857;1275;25315;-72
2023/05/29 09:13:29;;;;;;;8.60;5.00;;;;;;;22.70;56.73;95616.88;106771;1275;23914;-72
2023/05/29 09:15:59;;;;;;;11.10;4.80;;;;;;;22.86;55.88;95614.00;106315;1275;22570;-73
2023/05/29 09:18:31;;;;;;;5.50;4.90;;;;;;;23.11;56.77;95609.63;106565;1275;22534;-72
2023/05/29 09:20:59;;;;;;;5.70;5.10;;;;;;;23.36;56.04;95608.64;106600;1275;24216;-73
2023/05/29 09:23:52;;;;;;;6.60;4.70;;;;;;;23.65;54.66;95600.52;106589;1275;24077;-73
2023/05/29 09:26:21;;;;;;;;;;;;;;;23.82;53.94;95602.38;106413;1275;24315;-71
2023/05/29 09:28:50;;;;;;;4.90;4.40;;;;;;;24.01;54.01;95593.17;106668;1274;25262;-72
2023/05/29 09:31:20;;;;;;;5.70;4.90;;;;;;;24.12;51.54;95593.80;106713;1275;25316;-72
2023/05/29 09:33:49;;;;;;;6.10;4.90;;;;;;;24.11;51.32;95594.90;106673;1276;24385;-72
2023/05/29 09:36:25;;;;;;;7.50;4.90;;;;;;;24.05;49.43;95594.80;106420;1276;22635;-71
2023/05/29 09:38:53;;;;;;;13.20;5.40;;;;;;;24.18;52.27;95589.06;106629;1276;22518;-72
2023/05/29 09:41:32;;;;;;;6.10;4.90;;;;;;;24.57;52.43;95586.03;106551;1276;24076;-72
2023/05/29 09:44:01;;;;;;;6.00;4.80;;;;;;;24.83;51.20;95585.19;106346;1276;25337;-73
2023/05/29 09:46:34;;;;;;;7.30;4.60;;;;;;;25.07;51.62;95584.79;106718;1276;22805;-72
2023/05/29 09:49:03;;;;;;;7.00;4.50;;;;;;;25.35;51.62;95583.02;106576;1276;22530;-72
2023/05/29 09:51:31;;;;;;;7.10;4.60;;;;;;;25.47;47.72;95583.73;106565;1276;24353;-72
2023/05/29 09:54:01;;;;;;;6.20;4.50;;;;;;;25.25;47.16;95588.29;106614;1276;22795;-72
2023/05/29 09:56:30;;;;;;;7.90;4.90;;;;;;;25.15;47.52;95594.09;106674;1276;22790;-72
2023/05/29 09:58:59;;;;;;;5.60;4.50;;;;;;;25.30;47.70;95593.19;106570;1276;22534;-72
2023/05/29 10:01:27;;;;;;;7.30;4.40;;;;;;;25.30;45.52;95584.30;106638;1276;25540;-73
2023/05/29 10:03:56;;;;;;;5.60;4.60;;;;;;;25.49;47.75;95585.14;106574;1276;22535;-73
2023/05/29 10:06:24;;;;;;;6.40;4.40;;;;;;;25.56;46.64;95587.33;106554;1276;22538;-73
2023/05/29 10:08:55;;;;;;;10.10;4.70;;;;;;;25.46;46.78;95585.80;106508;1276;22527;-73
2023/05/29 10:11:27;;;;;;;9.90;4.80;;;;;;;25.23;46.33;95581.09;106603;1276;22530;-73
2023/05/29 10:13:57;;;;;;;6.40;4.70;;;;;;;25.01;47.69;95584.36;106587;1276;25543;-73
2023/05/29 10:16:27;;;;;;;9.80;5.10;;;;;;;24.93;48.43;95579.41;106573;1276;25777;-73
2023/05/29 10:18:57;;;;;;;5.60;4.50;;;;;;;24.93;44.80;95573.27;106580;1276;25277;-73
2023/05/29 10:21:28;;;;;;;5.40;4.50;;;;;;;24.97;46.68;95570.79;106617;1276;24307;-73
2023/05/29 10:23:57;;;;;;;8.00;5.20;;;;;;;25.04;47.72;95573.33;106577;1268;22548;-73
2023/05/29 10:26:27;;;;;;;6.80;4.50;;;;;;;24.95;47.38;95575.44;106393;1276;22552;-73
2023/05/29 10:29:11;;;;;;;5.00;4.50;;;;;;;24.83;47.42;95577.94;106326;1276;25348;-73
2023/05/29 10:32:00;;;;;;;7.40;5.20;;;;;;;24.70;47.68;95574.15;106563;1276;24208;-73
2023/05/29 10:34:31;;;;;;;7.60;4.70;;;;;;;24.47;48.14;95566.80;106410;1276;22618;-73
2023/05/29 10:37:17;;;;;;;6.50;4.50;;;;;;;24.50;48.15;95567.30;106536;1276;22650;-72
2023/05/29 10:39:46;;;;;;;6.20;4.40;;;;;;;24.67;48.16;95568.80;106648;1265;22645;-73
2023/05/29 10:42:40;;;;;;;6.80;4.60;;;;;;;24.47;44.70;95571.66;106558;1276;25529;-73
2023/05/29 10:45:11;;;;;;;5.70;4.50;;;;;;;24.20;46.34;95571.13;106576;1276;25403;-73
2023/05/29 10:47:39;;;;;;;6.00;4.90;;;;;;;24.01;47.15;95571.91;106574;1276;25225;-73
2023/05/29 10:50:09;;;;;;;5.60;4.80;;;;;;;23.78;46.55;95569.95;106682;1276;22575;-73
2023/05/29 10:52:45;;;;;;;5.60;4.90;;;;;;;23.59;47.69;95573.67;106374;1276;22950;-73
2023/05/29 10:55:16;;;;;;;7.80;4.80;;;;;;;23.27;47.27;95571.55;106599;1276;22524;-73
2023/05/29 10:57:48;;;;;;;7.90;4.60;;;;;;;23.06;48.17;95570.72;106606;1274;22534;-73
2023/05/29 11:00:18;;;;;;;7.60;4.90;;;;;;;22.98;48.88;95572.30;106570;1275;24358;-73
2023/05/29 11:02:48;;;;;;;8.50;4.70;;;;;;;22.87;49.14;95580.17;106676;1275;25349;-73
2023/05/29 11:05:22;;;;;;;6.10;4.60;;;;;;;22.58;49.84;95575.69;106641;1275;22638;-73
2023/05/29 11:07:53;;;;;;;8.00;4.70;;;;;;;22.43;50.72;95571.08;106581;1275;25349;-73
2023/05/29 11:10:46;;;;;;;6.60;4.60;;;;;;;22.19;51.23;95572.12;106618;1275;25325;-73
2023/05/29 11:13:37;;;;;;;7.00;5.20;;;;;;;22.22;53.00;95576.05;106602;1273;22809;-73
2023/05/29 11:16:24;;;;;;;7.30;5.00;;;;;;;22.30;52.87;95579.30;106647;1275;22526;-72
2023/05/29 11:18:54;;;;;;;6.70;4.90;;;;;;;22.79;53.82;95578.19;106638;1275;24326;-73
2023/05/29 11:22:13;;;;;;;5.10;4.30;;;;;;;23.32;50.61;95584.32;106579;1275;25626;-72
2023/05/29 11:24:44;;;;;;;5.20;4.30;;;;;;;23.51;49.14;95588.59;106513;1275;24323;-73
2023/05/29 11:27:13;;;;;;;6.10;4.20;;;;;;;23.51;49.49;95584.80;106628;1275;22533;-73
2023/05/29 11:29:41;;;;;;;7.40;4.30;;;;;;;23.87;50.94;95585.01;106581;1275;22512;-73
2023/05/29 11:32:14;;;;;;;5.20;4.70;;;;;;;24.15;49.03;95584.98;106606;1275;22657;-73
2023/05/29 11:34:45;;;;;;;7.60;5.00;;;;;;;24.03;48.21;95582.38;106635;1275;26131;-73
2023/05/29 11:37:14;;;;;;;5.30;4.50;;;;;;;23.94;48.94;95580.49;106592;1275;24293;-73
2023/05/29 11:39:42;;;;;;;6.80;4.60;;;;;;;23.97;49.51;95579.26;106625;1275;24426;-73